Terminal Aerodrome Forecast
Issued by NWS

Home | Current Version | Previous Version | Text Only | Print | Product List | Glossary On
Versions: 1 2 3 4 5 6 7 8 9 10 11 12 13 14 15
484
FTUS46 KLOX 190528
TAFVNY
TAF
KVNY 190528Z 1906/2006 36010KT P6SM SKC
     FM192300 13007KT P6SM SKC
     FM200500 VRB03KT P6SM SKC=

USA.gov is the U.S. government's official web portal to all federal, state and local government web resources and services.